sensor_id;sensor_type;location;lat;lon;timestamp;temperature;humidity
5210;DHT22;2624;48.048;11.706;2022-08-07T00:02:39;18.00;99.90
5210;DHT22;2624;48.048;11.706;2022-08-07T00:07:42;18.00;99.90
5210;DHT22;2624;48.048;11.706;2022-08-07T00:12:44;18.00;99.90
5210;DHT22;2624;48.048;11.706;2022-08-07T00:17:45;17.90;99.90
5210;DHT22;2624;48.048;11.706;2022-08-07T00:22:49;17.70;99.90
5210;DHT22;2624;48.048;11.706;2022-08-07T00:27:50;17.80;99.90
5210;DHT22;2624;48.048;11.706;2022-08-07T00:32:53;17.90;99.90
5210;DHT22;2624;48.048;11.706;2022-08-07T00:37:56;17.90;99.90
5210;DHT22;2624;48.048;11.706;2022-08-07T00:42:58;17.90;99.90
5210;DHT22;2624;48.048;11.706;2022-08-07T00:48:00;17.90;99.90
5210;DHT22;2624;48.048;11.706;2022-08-07T00:53:03;17.90;99.90
5210;DHT22;2624;48.048;11.706;2022-08-07T00:58:05;17.80;99.90
5210;DHT22;2624;48.048;11.706;2022-08-07T01:03:07;17.80;99.90
5210;DHT22;2624;48.048;11.706;2022-08-07T01:08:11;17.80;99.90
5210;DHT22;2624;48.048;11.706;2022-08-07T01:13:13;17.80;99.90
5210;DHT22;2624;48.048;11.706;2022-08-07T01:18:15;17.60;99.90
5210;DHT22;2624;48.048;11.706;2022-08-07T01:23:18;17.50;99.90
5210;DHT22;2624;48.048;11.706;2022-08-07T01:28:20;17.40;99.90
5210;DHT22;2624;48.048;11.706;2022-08-07T01:33:23;17.60;99.90
5210;DHT22;2624;48.048;11.706;2022-08-07T01:38:26;17.60;99.90
5210;DHT22;2624;48.048;11.706;2022-08-07T01:43:29;17.70;99.90
5210;DHT22;2624;48.048;11.706;2022-08-07T01:48:31;17.90;99.90
5210;DHT22;2624;48.048;11.706;2022-08-07T01:53:36;17.90;99.90
5210;DHT22;2624;48.048;11.706;2022-08-07T01:58:43;18.00;99.90
5210;DHT22;2624;48.048;11.706;2022-08-07T02:03:50;17.90;99.90
5210;DHT22;2624;48.048;11.706;2022-08-07T02:08:56;17.80;99.90
5210;DHT22;2624;48.048;11.706;2022-08-07T02:14:00;17.70;99.90
5210;DHT22;2624;48.048;11.706;2022-08-07T02:19:06;17.60;99.90
5210;DHT22;2624;48.048;11.706;2022-08-07T02:24:10;17.70;99.90
5210;DHT22;2624;48.048;11.706;2022-08-07T02:29:12;17.70;99.90
5210;DHT22;2624;48.048;11.706;2022-08-07T02:34:15;17.60;99.90
5210;DHT22;2624;48.048;11.706;2022-08-07T02:39:19;17.50;99.90
5210;DHT22;2624;48.048;11.706;2022-08-07T02:44:23;17.60;99.90
5210;DHT22;2624;48.048;11.706;2022-08-07T02:49:26;17.60;99.90
5210;DHT22;2624;48.048;11.706;2022-08-07T02:54:31;17.60;99.90
5210;DHT22;2624;48.048;11.706;2022-08-07T02:59:34;17.30;99.90
5210;DHT22;2624;48.048;11.706;2022-08-07T03:04:36;17.30;99.90
5210;DHT22;2624;48.048;11.706;2022-08-07T03:09:41;17.30;99.90
5210;DHT22;2624;48.048;11.706;2022-08-07T03:14:43;17.30;99.90
5210;DHT22;2624;48.048;11.706;2022-08-07T03:19:45;17.20;99.90
5210;DHT22;2624;48.048;11.706;2022-08-07T03:24:49;17.30;99.90
5210;DHT22;2624;48.048;11.706;2022-08-07T03:29:52;17.30;99.90
5210;DHT22;2624;48.048;11.706;2022-08-07T03:34:56;17.30;99.90
5210;DHT22;2624;48.048;11.706;2022-08-07T03:40:00;17.30;99.90
5210;DHT22;2624;48.048;11.706;2022-08-07T03:45:04;17.30;99.90
5210;DHT22;2624;48.048;11.706;2022-08-07T03:50:06;17.10;99.90
5210;DHT22;2624;48.048;11.706;2022-08-07T03:55:09;17.10;99.90
5210;DHT22;2624;48.048;11.706;2022-08-07T04:00:12;17.10;99.90
5210;DHT22;2624;48.048;11.706;2022-08-07T04:05:14;17.30;99.90
5210;DHT22;2624;48.048;11.706;2022-08-07T04:10:17;17.40;99.90
5210;DHT22;2624;48.048;11.706;2022-08-07T04:15:20;17.40;99.90
5210;DHT22;2624;48.048;11.706;2022-08-07T04:20:22;17.50;99.90
5210;DHT22;2624;48.048;11.706;2022-08-07T04:25:25;17.30;99.90
5210;DHT22;2624;48.048;11.706;2022-08-07T04:30:28;17.30;99.90
5210;DHT22;2624;48.048;11.706;2022-08-07T04:35:30;17.30;99.90
5210;DHT22;2624;48.048;11.706;2022-08-07T04:40:33;17.30;99.90
5210;DHT22;2624;48.048;11.706;2022-08-07T04:45:42;17.40;99.90
5210;DHT22;2624;48.048;11.706;2022-08-07T04:50:59;17.50;99.90
5210;DHT22;2624;48.048;11.706;2022-08-07T04:56:11;17.50;99.90
5210;DHT22;2624;48.048;11.706;2022-08-07T05:01:20;17.40;99.90
5210;DHT22;2624;48.048;11.706;2022-08-07T05:06:30;17.30;99.90
5210;DHT22;2624;48.048;11.706;2022-08-07T05:11:39;17.20;99.90
5210;DHT22;2624;48.048;11.706;2022-08-07T05:16:44;17.10;99.90
5210;DHT22;2624;48.048;11.706;2022-08-07T05:21:51;17.10;99.90
5210;DHT22;2624;48.048;11.706;2022-08-07T05:26:56;17.10;99.90
5210;DHT22;2624;48.048;11.706;2022-08-07T05:32:00;17.20;99.90
5210;DHT22;2624;48.048;11.706;2022-08-07T05:37:02;17.20;99.90
5210;DHT22;2624;48.048;11.706;2022-08-07T05:42:06;17.20;99.90
5210;DHT22;2624;48.048;11.706;2022-08-07T05:47:08;17.20;99.90
5210;DHT22;2624;48.048;11.706;2022-08-07T05:52:11;17.30;99.90
5210;DHT22;2624;48.048;11.706;2022-08-07T05:57:16;17.30;99.90
5210;DHT22;2624;48.048;11.706;2022-08-07T06:02:18;17.30;99.90
5210;DHT22;2624;48.048;11.706;2022-08-07T06:07:21;17.20;99.90
5210;DHT22;2624;48.048;11.706;2022-08-07T06:12:25;17.30;99.90
5210;DHT22;2624;48.048;11.706;2022-08-07T06:17:27;17.20;99.90
5210;DHT22;2624;48.048;11.706;2022-08-07T06:22:31;17.30;99.90
5210;DHT22;2624;48.048;11.706;2022-08-07T06:27:35;17.30;99.90
5210;DHT22;2624;48.048;11.706;2022-08-07T06:32:37;17.40;99.90
5210;DHT22;2624;48.048;11.706;2022-08-07T06:37:38;17.50;99.90
5210;DHT22;2624;48.048;11.706;2022-08-07T06:42:42;17.50;99.90
5210;DHT22;2624;48.048;11.706;2022-08-07T06:47:46;17.60;99.90
5210;DHT22;2624;48.048;11.706;2022-08-07T06:52:52;17.60;99.90
5210;DHT22;2624;48.048;11.706;2022-08-07T06:57:58;17.60;99.90
5210;DHT22;2624;48.048;11.706;2022-08-07T07:03:01;17.70;99.90
5210;DHT22;2624;48.048;11.706;2022-08-07T07:08:03;17.70;99.90
5210;DHT22;2624;48.048;11.706;2022-08-07T07:13:12;17.80;99.90
5210;DHT22;2624;48.048;11.706;2022-08-07T07:18:18;17.70;99.90
5210;DHT22;2624;48.048;11.706;2022-08-07T07:23:23;17.80;99.90
5210;DHT22;2624;48.048;11.706;2022-08-07T07:28:29;17.90;99.90
5210;DHT22;2624;48.048;11.706;2022-08-07T07:33:34;18.00;99.90
5210;DHT22;2624;48.048;11.706;2022-08-07T07:38:38;18.00;99.90
5210;DHT22;2624;48.048;11.706;2022-08-07T07:43:43;18.10;99.90
5210;DHT22;2624;48.048;11.706;2022-08-07T07:48:47;18.20;99.90
5210;DHT22;2624;48.048;11.706;2022-08-07T07:53:49;18.30;99.90
5210;DHT22;2624;48.048;11.706;2022-08-07T07:58:55;18.40;99.90
5210;DHT22;2624;48.048;11.706;2022-08-07T08:04:00;18.60;99.90
5210;DHT22;2624;48.048;11.706;2022-08-07T08:09:05;18.70;99.90
5210;DHT22;2624;48.048;11.706;2022-08-07T08:14:09;18.50;99.90
5210;DHT22;2624;48.048;11.706;2022-08-07T08:19:13;18.70;99.90
5210;DHT22;2624;48.048;11.706;2022-08-07T08:24:17;18.90;99.90
5210;DHT22;2624;48.048;11.706;2022-08-07T08:29:41;19.00;99.90
5210;DHT22;2624;48.048;11.706;2022-08-07T08:34:43;19.10;99.90
5210;DHT22;2624;48.048;11.706;2022-08-07T08:39:47;19.10;99.90
5210;DHT22;2624;48.048;11.706;2022-08-07T08:44:59;19.00;99.90
5210;DHT22;2624;48.048;11.706;2022-08-07T08:50:08;19.40;99.90
5210;DHT22;2624;48.048;11.706;2022-08-07T08:55:17;19.60;99.90
5210;DHT22;2624;48.048;11.706;2022-08-07T09:00:22;19.70;99.90
5210;DHT22;2624;48.048;11.706;2022-08-07T09:05:33;19.60;99.90
5210;DHT22;2624;48.048;11.706;2022-08-07T09:10:55;19.70;99.90
5210;DHT22;2624;48.048;11.706;2022-08-07T09:16:04;20.00;99.90
5210;DHT22;2624;48.048;11.706;2022-08-07T09:21:16;20.00;99.90
5210;DHT22;2624;48.048;11.706;2022-08-07T09:26:26;20.30;99.90
5210;DHT22;2624;48.048;11.706;2022-08-07T09:31:38;20.60;99.90
5210;DHT22;2624;48.048;11.706;2022-08-07T09:36:47;20.80;99.90
5210;DHT22;2624;48.048;11.706;2022-08-07T09:42:01;20.90;99.90
5210;DHT22;2624;48.048;11.706;2022-08-07T09:47:14;20.70;99.90
5210;DHT22;2624;48.048;11.706;2022-08-07T09:52:20;20.90;99.90
5210;DHT22;2624;48.048;11.706;2022-08-07T10:03:34;21.20;99.90
5210;DHT22;2624;48.048;11.706;2022-08-07T10:08:46;21.20;99.90
5210;DHT22;2624;48.048;11.706;2022-08-07T10:13:56;21.50;99.90
5210;DHT22;2624;48.048;11.706;2022-08-07T10:19:26;21.40;99.90
5210;DHT22;2624;48.048;11.706;2022-08-07T10:24:55;21.90;99.90
5210;DHT22;2624;48.048;11.706;2022-08-07T10:30:05;22.00;99.90
5210;DHT22;2624;48.048;11.706;2022-08-07T10:35:18;22.10;99.90
5210;DHT22;2624;48.048;11.706;2022-08-07T10:40:28;21.80;99.90
5210;DHT22;2624;48.048;11.706;2022-08-07T10:45:35;22.20;99.90
5210;DHT22;2624;48.048;11.706;2022-08-07T10:50:44;22.30;99.90
5210;DHT22;2624;48.048;11.706;2022-08-07T10:55:51;21.90;99.90
5210;DHT22;2624;48.048;11.706;2022-08-07T11:00:59;21.90;99.90
5210;DHT22;2624;48.048;11.706;2022-08-07T11:06:15;22.30;99.90
5210;DHT22;2624;48.048;11.706;2022-08-07T11:11:24;22.70;99.90
5210;DHT22;2624;48.048;11.706;2022-08-07T11:16:32;22.40;99.90
5210;DHT22;2624;48.048;11.706;2022-08-07T11:21:38;22.60;99.90
5210;DHT22;2624;48.048;11.706;2022-08-07T11:26:46;23.00;99.90
5210;DHT22;2624;48.048;11.706;2022-08-07T11:31:52;22.90;99.90
5210;DHT22;2624;48.048;11.706;2022-08-07T11:37:03;22.70;99.90
5210;DHT22;2624;48.048;11.706;2022-08-07T11:42:13;22.60;99.90
5210;DHT22;2624;48.048;11.706;2022-08-07T11:47:24;22.70;99.90
5210;DHT22;2624;48.048;11.706;2022-08-07T11:52:50;22.60;99.90
5210;DHT22;2624;48.048;11.706;2022-08-07T11:58:02;22.60;99.90
5210;DHT22;2624;48.048;11.706;2022-08-07T12:03:29;23.10;99.70
5210;DHT22;2624;48.048;11.706;2022-08-07T12:08:39;23.00;99.90
5210;DHT22;2624;48.048;11.706;2022-08-07T12:13:46;22.90;99.50
5210;DHT22;2624;48.048;11.706;2022-08-07T12:18:54;23.20;99.90
5210;DHT22;2624;48.048;11.706;2022-08-07T12:24:03;23.40;99.00
5210;DHT22;2624;48.048;11.706;2022-08-07T12:29:11;23.20;99.50
5210;DHT22;2624;48.048;11.706;2022-08-07T12:34:18;23.60;99.40
5210;DHT22;2624;48.048;11.706;2022-08-07T12:39:23;23.30;99.50
5210;DHT22;2624;48.048;11.706;2022-08-07T12:44:27;23.60;98.70
5210;DHT22;2624;48.048;11.706;2022-08-07T12:49:36;23.50;98.60
5210;DHT22;2624;48.048;11.706;2022-08-07T12:54:56;23.20;98.20
5210;DHT22;2624;48.048;11.706;2022-08-07T13:00:01;23.50;99.10
5210;DHT22;2624;48.048;11.706;2022-08-07T13:05:16;23.60;97.10
5210;DHT22;2624;48.048;11.706;2022-08-07T13:10:31;23.70;96.90
5210;DHT22;2624;48.048;11.706;2022-08-07T13:15:49;23.50;98.60
5210;DHT22;2624;48.048;11.706;2022-08-07T13:21:00;23.80;97.40
5210;DHT22;2624;48.048;11.706;2022-08-07T13:26:09;23.70;96.80
5210;DHT22;2624;48.048;11.706;2022-08-07T13:31:18;23.60;95.50
5210;DHT22;2624;48.048;11.706;2022-08-07T13:36:24;23.60;97.50
5210;DHT22;2624;48.048;11.706;2022-08-07T13:41:36;23.50;97.50
5210;DHT22;2624;48.048;11.706;2022-08-07T13:46:43;23.40;97.70
5210;DHT22;2624;48.048;11.706;2022-08-07T13:51:46;23.70;97.50
5210;DHT22;2624;48.048;11.706;2022-08-07T13:56:52;23.80;96.90
5210;DHT22;2624;48.048;11.706;2022-08-07T14:01:58;23.90;96.30
5210;DHT22;2624;48.048;11.706;2022-08-07T14:07:07;23.80;96.40
5210;DHT22;2624;48.048;11.706;2022-08-07T14:12:18;23.80;93.90
5210;DHT22;2624;48.048;11.706;2022-08-07T14:17:23;23.80;94.90
5210;DHT22;2624;48.048;11.706;2022-08-07T14:22:29;23.70;96.20
5210;DHT22;2624;48.048;11.706;2022-08-07T14:27:37;23.70;95.60
5210;DHT22;2624;48.048;11.706;2022-08-07T14:32:40;23.70;95.40
5210;DHT22;2624;48.048;11.706;2022-08-07T14:37:48;23.60;94.40
5210;DHT22;2624;48.048;11.706;2022-08-07T14:42:55;23.60;94.50
5210;DHT22;2624;48.048;11.706;2022-08-07T14:48:00;23.60;95.50
5210;DHT22;2624;48.048;11.706;2022-08-07T14:53:05;23.60;96.00
5210;DHT22;2624;48.048;11.706;2022-08-07T14:58:10;23.50;95.40
5210;DHT22;2624;48.048;11.706;2022-08-07T15:03:12;23.50;96.40
5210;DHT22;2624;48.048;11.706;2022-08-07T15:08:21;23.40;94.70
5210;DHT22;2624;48.048;11.706;2022-08-07T15:13:26;23.50;95.70
5210;DHT22;2624;48.048;11.706;2022-08-07T15:18:32;23.30;94.70
5210;DHT22;2624;48.048;11.706;2022-08-07T15:23:36;23.30;95.40
5210;DHT22;2624;48.048;11.706;2022-08-07T15:28:42;23.30;96.50
5210;DHT22;2624;48.048;11.706;2022-08-07T15:33:44;23.30;95.50
5210;DHT22;2624;48.048;11.706;2022-08-07T15:38:46;23.20;94.70
5210;DHT22;2624;48.048;11.706;2022-08-07T15:44:02;23.20;95.80
5210;DHT22;2624;48.048;11.706;2022-08-07T15:49:06;23.20;94.70
5210;DHT22;2624;48.048;11.706;2022-08-07T15:54:11;23.20;95.30
5210;DHT22;2624;48.048;11.706;2022-08-07T15:59:16;23.20;96.20
5210;DHT22;2624;48.048;11.706;2022-08-07T16:04:21;23.10;94.50
5210;DHT22;2624;48.048;11.706;2022-08-07T16:09:31;23.10;96.20
5210;DHT22;2624;48.048;11.706;2022-08-07T16:14:52;23.10;94.80
5210;DHT22;2624;48.048;11.706;2022-08-07T16:20:24;23.00;95.60
5210;DHT22;2624;48.048;11.706;2022-08-07T16:25:35;23.00;95.00
5210;DHT22;2624;48.048;11.706;2022-08-07T16:30:51;22.90;95.20
5210;DHT22;2624;48.048;11.706;2022-08-07T16:36:18;22.80;95.20
5210;DHT22;2624;48.048;11.706;2022-08-07T16:41:44;22.90;96.40
5210;DHT22;2624;48.048;11.706;2022-08-07T16:47:09;22.90;96.70
5210;DHT22;2624;48.048;11.706;2022-08-07T16:52:19;22.90;96.80
5210;DHT22;2624;48.048;11.706;2022-08-07T16:57:30;22.90;96.80
5210;DHT22;2624;48.048;11.706;2022-08-07T17:02:59;22.90;96.90
5210;DHT22;2624;48.048;11.706;2022-08-07T17:08:02;22.80;96.50
5210;DHT22;2624;48.048;11.706;2022-08-07T17:13:38;22.80;96.70
5210;DHT22;2624;48.048;11.706;2022-08-07T17:18:48;22.70;96.50
5210;DHT22;2624;48.048;11.706;2022-08-07T17:24:01;22.70;96.60
5210;DHT22;2624;48.048;11.706;2022-08-07T17:29:07;22.60;96.40
5210;DHT22;2624;48.048;11.706;2022-08-07T17:34:18;22.60;96.20
5210;DHT22;2624;48.048;11.706;2022-08-07T17:39:33;22.50;95.80
5210;DHT22;2624;48.048;11.706;2022-08-07T17:44:41;22.50;96.10
5210;DHT22;2624;48.048;11.706;2022-08-07T17:49:53;22.40;96.00
5210;DHT22;2624;48.048;11.706;2022-08-07T17:55:03;22.40;95.80
5210;DHT22;2624;48.048;11.706;2022-08-07T18:00:07;22.40;95.80
5210;DHT22;2624;48.048;11.706;2022-08-07T18:05:27;22.40;96.40
5210;DHT22;2624;48.048;11.706;2022-08-07T18:10:36;22.40;96.30
5210;DHT22;2624;48.048;11.706;2022-08-07T18:15:54;22.30;96.30
5210;DHT22;2624;48.048;11.706;2022-08-07T18:21:00;22.20;96.50
5210;DHT22;2624;48.048;11.706;2022-08-07T18:26:06;22.20;96.30
5210;DHT22;2624;48.048;11.706;2022-08-07T18:31:17;22.10;96.50
5210;DHT22;2624;48.048;11.706;2022-08-07T18:36:38;21.90;96.80
5210;DHT22;2624;48.048;11.706;2022-08-07T18:41:51;21.90;97.20
5210;DHT22;2624;48.048;11.706;2022-08-07T18:47:02;22.00;97.20
5210;DHT22;2624;48.048;11.706;2022-08-07T18:52:24;21.90;97.20
5210;DHT22;2624;48.048;11.706;2022-08-07T18:57:34;21.70;97.60
5210;DHT22;2624;48.048;11.706;2022-08-07T19:02:41;21.60;97.80
5210;DHT22;2624;48.048;11.706;2022-08-07T19:07:55;21.70;97.60
5210;DHT22;2624;48.048;11.706;2022-08-07T19:13:03;21.70;97.70
5210;DHT22;2624;48.048;11.706;2022-08-07T19:18:18;21.60;97.90
5210;DHT22;2624;48.048;11.706;2022-08-07T19:23:25;21.60;98.20
5210;DHT22;2624;48.048;11.706;2022-08-07T19:28:32;21.60;98.10
5210;DHT22;2624;48.048;11.706;2022-08-07T19:33:40;21.50;98.70
5210;DHT22;2624;48.048;11.706;2022-08-07T19:38:47;21.40;99.10
5210;DHT22;2624;48.048;11.706;2022-08-07T19:43:52;21.50;99.10
5210;DHT22;2624;48.048;11.706;2022-08-07T19:48:57;21.50;99.00
5210;DHT22;2624;48.048;11.706;2022-08-07T19:54:01;21.40;99.80
5210;DHT22;2624;48.048;11.706;2022-08-07T19:59:13;21.30;99.70
5210;DHT22;2624;48.048;11.706;2022-08-07T20:04:18;21.30;99.80
5210;DHT22;2624;48.048;11.706;2022-08-07T20:09:24;21.30;99.50
5210;DHT22;2624;48.048;11.706;2022-08-07T20:14:28;21.30;99.40
5210;DHT22;2624;48.048;11.706;2022-08-07T20:19:32;21.30;99.50
5210;DHT22;2624;48.048;11.706;2022-08-07T20:24:36;21.30;99.50
5210;DHT22;2624;48.048;11.706;2022-08-07T20:29:43;21.10;99.50
5210;DHT22;2624;48.048;11.706;2022-08-07T20:34:50;21.10;99.50
5210;DHT22;2624;48.048;11.706;2022-08-07T20:39:57;21.00;99.60
5210;DHT22;2624;48.048;11.706;2022-08-07T20:44:59;21.00;99.50
5210;DHT22;2624;48.048;11.706;2022-08-07T20:50:03;20.30;99.90
5210;DHT22;2624;48.048;11.706;2022-08-07T20:55:07;20.00;99.90
5210;DHT22;2624;48.048;11.706;2022-08-07T21:00:10;20.00;99.90
5210;DHT22;2624;48.048;11.706;2022-08-07T21:05:15;20.50;99.90
5210;DHT22;2624;48.048;11.706;2022-08-07T21:10:22;20.60;99.90
5210;DHT22;2624;48.048;11.706;2022-08-07T21:15:27;20.60;99.90
5210;DHT22;2624;48.048;11.706;2022-08-07T21:20:32;20.60;99.90
5210;DHT22;2624;48.048;11.706;2022-08-07T21:25:47;20.60;99.90
5210;DHT22;2624;48.048;11.706;2022-08-07T21:30:59;20.60;99.90
5210;DHT22;2624;48.048;11.706;2022-08-07T21:36:06;20.50;99.90
5210;DHT22;2624;48.048;11.706;2022-08-07T21:41:18;20.50;99.90
5210;DHT22;2624;48.048;11.706;2022-08-07T21:46:27;20.30;99.90
5210;DHT22;2624;48.048;11.706;2022-08-07T21:51:35;20.30;99.90
5210;DHT22;2624;48.048;11.706;2022-08-07T21:56:48;20.10;99.90
5210;DHT22;2624;48.048;11.706;2022-08-07T22:01:52;19.90;99.90
5210;DHT22;2624;48.048;11.706;2022-08-07T22:07:00;20.00;99.90
5210;DHT22;2624;48.048;11.706;2022-08-07T22:12:13;20.00;99.90
5210;DHT22;2624;48.048;11.706;2022-08-07T22:17:17;20.10;99.90
5210;DHT22;2624;48.048;11.706;2022-08-07T22:22:24;20.10;99.90
5210;DHT22;2624;48.048;11.706;2022-08-07T22:27:38;20.00;99.90
5210;DHT22;2624;48.048;11.706;2022-08-07T22:32:59;20.00;99.90
5210;DHT22;2624;48.048;11.706;2022-08-07T22:38:09;19.90;99.90
5210;DHT22;2624;48.048;11.706;2022-08-07T22:43:32;19.80;99.90
5210;DHT22;2624;48.048;11.706;2022-08-07T22:49:07;19.60;99.90
5210;DHT22;2624;48.048;11.706;2022-08-07T22:54:28;18.90;99.90
5210;DHT22;2624;48.048;11.706;2022-08-07T22:59:49;19.20;99.90
5210;DHT22;2624;48.048;11.706;2022-08-07T23:05:00;19.40;99.90
5210;DHT22;2624;48.048;11.706;2022-08-07T23:10:15;19.50;99.90
5210;DHT22;2624;48.048;11.706;2022-08-07T23:15:26;19.40;99.90
5210;DHT22;2624;48.048;11.706;2022-08-07T23:20:57;19.40;99.90
5210;DHT22;2624;48.048;11.706;2022-08-07T23:26:11;19.40;99.90
5210;DHT22;2624;48.048;11.706;2022-08-07T23:31:24;19.30;99.90
5210;DHT22;2624;48.048;11.706;2022-08-07T23:36:41;18.50;99.90
5210;DHT22;2624;48.048;11.706;2022-08-07T23:41:56;18.60;99.90
5210;DHT22;2624;48.048;11.706;2022-08-07T23:47:14;18.30;99.90
5210;DHT22;2624;48.048;11.706;2022-08-07T23:52:26;18.50;99.90
5210;DHT22;2624;48.048;11.706;2022-08-07T23:57:31;18.20;99.90
